Time;durP1;ratioP1;P1;durP2;ratioP2;P2;SDS_P1;SDS_P2;PMS_P1;PMS_P2;Temp;Humidity;BMP_temperature;BMP_pressure;BME280_temperature;BME280_humidity;BME280_pressure;Samples;Min_cycle;Max_cycle;Signal;HPM_P1;HPM_P2
2022/05/28 00:01:02;;;;;;;12.20;1.52;;;12.00;99.90;;;;;;5076589;28;20048;-76
2022/05/28 00:03:28;;;;;;;10.38;1.52;;;12.00;99.90;;;;;;5080834;28;20040;-76
2022/05/28 00:05:54;;;;;;;11.52;1.40;;;12.00;99.90;;;;;;5089558;28;20117;-76
2022/05/28 00:08:20;;;;;;;13.82;1.95;;;12.00;99.90;;;;;;5100114;28;20086;-76
2022/05/28 00:10:46;;;;;;;8.43;0.73;;;12.00;99.90;;;;;;5080988;28;20048;-76
2022/05/28 00:13:12;;;;;;;9.27;1.17;;;12.00;99.90;;;;;;5079235;28;20044;-76
2022/05/28 00:15:38;;;;;;;8.77;1.00;;;11.90;99.90;;;;;;5076100;28;20043;-76
2022/05/28 00:18:04;;;;;;;9.15;1.05;;;12.00;99.90;;;;;;5109876;28;20043;-76
2022/05/28 00:20:30;;;;;;;8.32;0.88;;;11.90;99.90;;;;;;5091586;28;20043;-76
2022/05/28 00:22:55;;;;;;;8.60;1.05;;;11.90;99.90;;;;;;5110965;28;20067;-76
2022/05/28 00:25:21;;;;;;;6.82;1.17;;;11.90;99.90;;;;;;5070782;28;20042;-76
2022/05/28 00:27:47;;;;;;;5.97;0.93;;;11.90;99.90;;;;;;5092132;28;20095;-76
2022/05/28 00:30:16;;;;;;;9.13;1.33;;;12.00;99.90;;;;;;5111471;28;20047;-76
2022/05/28 00:32:42;;;;;;;7.72;1.17;;;11.90;99.90;;;;;;5075180;28;20039;-76
2022/05/28 00:35:12;;;;;;;6.40;0.90;;;11.90;99.90;;;;;;5097274;28;20657;-76
2022/05/28 00:37:37;;;;;;;9.07;1.10;;;11.90;99.90;;;;;;5089094;28;20036;-76
2022/05/28 00:40:09;;;;;;;11.65;1.40;;;11.90;99.90;;;;;;5075990;28;20486;-76
2022/05/28 00:42:34;;;;;;;10.50;1.90;;;11.90;99.90;;;;;;5076873;28;20036;-76
2022/05/28 00:45:00;;;;;;;6.70;1.00;;;11.80;99.90;;;;;;5078312;28;20367;-76
2022/05/28 00:47:26;;;;;;;8.60;1.77;;;11.80;99.90;;;;;;5075476;28;20068;-76
2022/05/28 00:49:52;;;;;;;13.68;2.55;;;11.80;99.90;;;;;;5093204;28;20431;-76
2022/05/28 00:52:22;;;;;;;6.05;0.88;;;11.70;99.90;;;;;;5087510;28;20036;-76
2022/05/28 00:54:48;;;;;;;9.07;1.08;;;11.60;99.90;;;;;;5090602;28;20042;-76
2022/05/28 00:57:16;;;;;;;8.45;1.10;;;11.60;99.90;;;;;;5059406;28;20115;-76
2022/05/28 00:59:43;;;;;;;9.07;1.15;;;11.60;99.90;;;;;;5077601;28;20036;-75
2022/05/28 01:02:24;;;;;;;7.55;1.35;;;11.50;99.90;;;;;;5094911;28;20569;-76
2022/05/28 01:05:02;;;;;;;14.07;2.13;;;11.40;99.90;;;;;;5080162;28;20063;-76
2022/05/28 01:08:09;;;;;;;11.00;1.52;;;11.40;99.90;;;;;;5108338;27;20605;-76
2022/05/28 01:10:53;;;;;;;9.88;1.95;;;11.30;99.90;;;;;;5098950;28;20444;-76
2022/05/28 01:13:26;;;;;;;9.27;1.08;;;11.20;99.90;;;;;;5061602;28;20056;-75
2022/05/28 01:16:03;;;;;;;8.43;0.98;;;11.10;99.90;;;;;;5075728;28;20043;-75
2022/05/28 01:18:34;;;;;;;9.07;1.00;;;11.10;99.90;;;;;;5078567;28;20039;-76
2022/05/28 01:21:06;;;;;;;7.88;1.13;;;11.10;99.90;;;;;;5099712;28;20075;-76
2022/05/28 01:23:52;;;;;;;7.72;0.88;;;11.00;99.90;;;;;;5088447;28;22329;-76
2022/05/28 01:26:39;;;;;;;11.70;1.25;;;11.00;99.90;;;;;;5096393;28;20531;-76
2022/05/28 01:29:10;;;;;;;11.80;1.40;;;11.00;99.90;;;;;;5097476;28;20058;-76
2022/05/28 01:31:37;;;;;;;8.50;1.10;;;10.90;99.90;;;;;;5097057;28;20078;-76
2022/05/28 01:34:06;;;;;;;10.98;1.20;;;10.90;99.90;;;;;;5081859;28;20176;-76
2022/05/28 01:36:33;;;;;;;7.65;1.52;;;10.90;99.90;;;;;;5079736;28;20074;-75
2022/05/28 01:39:00;;;;;;;8.30;1.15;;;10.80;99.90;;;;;;5096154;28;20264;-76
2022/05/28 01:41:29;;;;;;;6.88;1.00;;;10.80;99.90;;;;;;5120626;27;20065;-75
2022/05/28 01:43:56;;;;;;;8.13;1.52;;;10.70;99.90;;;;;;5074773;28;20036;-76
2022/05/28 01:46:27;;;;;;;9.00;0.88;;;10.70;99.90;;;;;;5095094;28;20051;-75
2022/05/28 01:48:54;;;;;;;10.48;1.27;;;10.70;99.90;;;;;;5068640;28;20088;-76
2022/05/28 01:51:22;;;;;;;11.13;1.10;;;10.60;99.90;;;;;;5075787;28;20043;-75
2022/05/28 01:54:07;;;;;;;10.55;1.42;;;10.60;99.90;;;;;;5082106;28;20044;-76
2022/05/28 01:56:37;;;;;;;12.35;2.00;;;10.60;99.90;;;;;;5113961;27;20035;-75
2022/05/28 01:59:03;;;;;;;12.30;1.55;;;10.60;99.90;;;;;;5096403;28;20116;-76
2022/05/28 02:01:29;;;;;;;5.65;0.85;;;10.60;99.90;;;;;;5079171;28;20462;-76
2022/05/28 02:03:58;;;;;;;8.80;0.90;;;10.60;99.90;;;;;;5079687;28;20089;-75
2022/05/28 02:06:25;;;;;;;11.18;2.17;;;10.60;99.90;;;;;;5095545;28;20036;-75
2022/05/28 02:08:52;;;;;;;8.95;1.17;;;10.60;99.90;;;;;;5092747;28;20062;-75
2022/05/28 02:11:38;;;;;;;7.82;1.30;;;10.50;99.90;;;;;;5080887;28;20050;-75
2022/05/28 02:14:26;;;;;;;13.35;1.40;;;10.50;99.90;;;;;;5081182;28;20055;-75
2022/05/28 02:17:29;;;;;;;8.25;1.42;;;10.50;99.90;;;;;;5075445;28;20118;-76
2022/05/28 02:20:02;;;;;;;7.57;0.80;;;10.40;99.90;;;;;;5081968;28;20647;-75
2022/05/28 02:22:38;;;;;;;12.20;1.60;;;10.40;99.90;;;;;;5081548;28;20039;-75
2022/05/28 02:25:14;;;;;;;8.48;1.13;;;10.40;99.90;;;;;;5112384;27;20083;-76
2022/05/28 02:27:41;;;;;;;10.05;1.42;;;10.30;99.90;;;;;;5099627;28;20036;-75
2022/05/28 02:30:09;;;;;;;7.72;0.82;;;10.30;99.90;;;;;;5108405;27;20424;-75
2022/05/28 02:32:34;;;;;;;6.03;0.88;;;10.30;99.90;;;;;;5093574;28;20040;-76
2022/05/28 02:35:03;;;;;;;9.95;0.98;;;10.20;99.90;;;;;;5097349;28;20126;-75
2022/05/28 02:37:29;;;;;;;9.93;0.98;;;10.20;99.90;;;;;;5093608;28;20048;-76
2022/05/28 02:39:57;;;;;;;13.05;1.58;;;10.20;99.90;;;;;;5096191;28;20567;-76
2022/05/28 02:42:22;;;;;;;10.48;1.30;;;10.10;99.90;;;;;;5079322;28;20046;-76
2022/05/28 02:44:48;;;;;;;9.85;1.80;;;10.10;99.90;;;;;;5079630;28;20041;-76
2022/05/28 02:47:14;;;;;;;8.15;1.45;;;10.10;99.90;;;;;;5076258;28;20038;-76
2022/05/28 02:49:39;;;;;;;11.18;1.10;;;10.00;99.90;;;;;;5091695;28;20041;-75
2022/05/28 02:52:06;;;;;;;6.88;1.00;;;10.00;99.90;;;;;;5096883;28;20089;-76
2022/05/28 02:54:34;;;;;;;5.93;0.82;;;9.90;99.90;;;;;;5073422;28;20082;-76
2022/05/28 02:57:01;;;;;;;8.90;1.52;;;10.00;99.90;;;;;;5079942;28;20067;-76
2022/05/28 02:59:26;;;;;;;11.05;1.10;;;10.00;99.90;;;;;;5104975;27;20076;-76
2022/05/28 03:01:52;;;;;;;7.80;1.10;;;10.00;99.90;;;;;;5069325;28;20067;-76
2022/05/28 03:04:19;;;;;;;7.10;0.90;;;9.90;99.90;;;;;;5097759;28;20420;-76
2022/05/28 03:06:44;;;;;;;10.10;1.38;;;9.90;99.90;;;;;;5064590;28;20046;-76
2022/05/28 03:09:11;;;;;;;15.88;2.35;;;9.90;99.90;;;;;;5076930;28;20047;-76
2022/05/28 03:11:38;;;;;;;9.80;1.45;;;10.00;99.90;;;;;;5092932;28;20043;-76
2022/05/28 03:14:05;;;;;;;6.93;0.90;;;9.90;99.90;;;;;;5075053;28;20071;-76
2022/05/28 03:16:31;;;;;;;10.02;1.13;;;9.90;99.90;;;;;;5090814;28;20097;-76
2022/05/28 03:18:56;;;;;;;9.48;1.23;;;9.80;99.90;;;;;;5097533;28;20039;-76
2022/05/28 03:21:22;;;;;;;10.02;1.38;;;9.90;99.90;;;;;;5075246;28;20036;-76
2022/05/28 03:23:48;;;;;;;5.63;1.08;;;9.90;99.90;;;;;;5079526;28;20150;-76
2022/05/28 03:26:17;;;;;;;10.07;1.55;;;9.80;99.90;;;;;;5095562;28;20429;-75
2022/05/28 03:28:43;;;;;;;9.35;1.42;;;10.20;99.90;;;;;;5074914;28;20042;-76
2022/05/28 03:31:08;;;;;;;8.15;1.27;;;9.80;99.90;;;;;;5073333;28;20435;-75
2022/05/28 03:33:34;;;;;;;9.30;1.13;;;9.80;99.90;;;;;;5079590;28;20048;-76
2022/05/28 03:36:00;;;;;;;7.78;1.00;;;9.80;99.90;;;;;;5113433;27;20085;-74
2022/05/28 03:38:26;;;;;;;6.15;0.95;;;9.70;99.90;;;;;;5075947;28;20047;-75
2022/05/28 03:40:51;;;;;;;10.13;1.52;;;9.80;99.90;;;;;;5093941;28;20037;-76
2022/05/28 03:43:17;;;;;;;5.50;0.90;;;9.80;99.90;;;;;;5067560;28;20033;-75
2022/05/28 03:45:43;;;;;;;8.02;1.13;;;9.80;99.90;;;;;;5078247;28;20032;-76
2022/05/28 03:48:10;;;;;;;6.80;1.00;;;9.80;99.90;;;;;;5079258;28;20046;-75
2022/05/28 03:50:36;;;;;;;9.60;1.58;;;9.80;99.90;;;;;;5077960;28;20036;-76
2022/05/28 03:53:02;;;;;;;6.20;0.93;;;9.70;99.90;;;;;;5093230;28;20043;-76
2022/05/28 03:55:28;;;;;;;13.50;1.92;;;9.80;99.90;;;;;;5095121;28;20035;-75
2022/05/28 03:57:54;;;;;;;12.00;1.42;;;9.80;99.90;;;;;;5079579;28;20473;-76
2022/05/28 04:00:21;;;;;;;13.55;1.33;;;9.80;99.90;;;;;;5078314;28;20059;-76
2022/05/28 04:02:46;;;;;;;12.15;2.13;;;9.90;99.90;;;;;;5060580;28;20032;-75
2022/05/28 04:05:12;;;;;;;9.75;1.40;;;9.90;99.90;;;;;;5079407;28;20116;-75
2022/05/28 04:07:40;;;;;;;10.68;1.30;;;10.00;99.90;;;;;;5073983;28;20044;-76
2022/05/28 04:10:07;;;;;;;8.80;1.15;;;10.00;99.90;;;;;;5094622;28;20578;-75
2022/05/28 04:12:33;;;;;;;10.27;2.10;;;10.30;99.90;;;;;;5112008;27;20047;-75
2022/05/28 04:14:59;;;;;;;9.80;1.25;;;10.30;99.90;;;;;;5095224;28;20401;-75
2022/05/28 04:17:24;;;;;;;11.07;1.75;;;10.40;99.90;;;;;;5066452;28;20035;-76
2022/05/28 04:19:50;;;;;;;11.73;1.63;;;10.40;99.90;;;;;;5082126;28;20109;-75
2022/05/28 04:22:16;;;;;;;11.35;1.73;;;10.40;99.90;;;;;;5072376;28;20040;-76
2022/05/28 04:24:41;;;;;;;9.32;1.33;;;10.80;99.90;;;;;;5075304;28;20042;-75
2022/05/28 04:27:08;;;;;;;8.30;1.70;;;11.90;99.90;;;;;;5108541;28;20089;-75
2022/05/28 04:29:33;;;;;;;8.25;1.17;;;13.20;99.90;;;;;;5076220;28;20072;-75
2022/05/28 04:31:59;;;;;;;8.30;1.33;;;14.50;99.90;;;;;;5098019;28;20071;-75
2022/05/28 04:34:25;;;;;;;10.57;1.60;;;15.70;99.90;;;;;;5108884;28;20036;-75
2022/05/28 04:36:50;;;;;;;13.07;1.77;;;16.50;99.90;;;;;;5108532;27;20125;-75
2022/05/28 04:39:16;;;;;;;14.32;1.75;;;16.90;99.90;;;;;;5098484;28;20412;-75
2022/05/28 04:41:42;;;;;;;11.70;2.28;;;16.80;99.90;;;;;;5080546;28;20043;-75
2022/05/28 04:44:08;;;;;;;7.28;1.55;;;17.00;99.90;;;;;;5112456;27;20538;-75
2022/05/28 04:46:33;;;;;;;10.93;1.63;;;17.40;99.90;;;;;;5076862;28;20458;-75
2022/05/28 04:48:59;;;;;;;9.80;1.60;;;16.80;99.90;;;;;;5114847;27;20048;-75
2022/05/28 04:51:25;;;;;;;10.77;1.70;;;16.00;99.90;;;;;;5114126;27;20067;-75
2022/05/28 04:53:50;;;;;;;12.07;1.85;;;15.80;99.90;;;;;;5096823;28;20544;-75
2022/05/28 04:56:16;;;;;;;9.35;1.75;;;15.10;99.90;;;;;;5102296;28;20032;-75
2022/05/28 04:58:42;;;;;;;9.70;2.47;;;14.60;99.90;;;;;;5078396;28;20032;-76
2022/05/28 05:01:12;;;;;;;12.80;1.83;;;14.20;99.90;;;;;;5078898;28;20039;-75
2022/05/28 05:03:37;;;;;;;10.38;1.77;;;13.90;99.90;;;;;;5079565;28;20036;-75
2022/05/28 05:06:03;;;;;;;13.80;2.03;;;14.30;99.90;;;;;;5080573;28;20119;-76
2022/05/28 05:08:29;;;;;;;10.80;2.00;;;14.20;99.90;;;;;;5098572;28;20043;-75
2022/05/28 05:10:54;;;;;;;14.48;2.15;;;13.70;99.90;;;;;;5099131;28;20032;-75
2022/05/28 05:13:20;;;;;;;12.55;1.98;;;13.50;99.90;;;;;;5073402;28;20089;-75
2022/05/28 05:15:46;;;;;;;13.60;2.80;;;13.20;99.90;;;;;;5067771;28;20043;-75
2022/05/28 05:18:11;;;;;;;15.52;2.65;;;13.00;99.90;;;;;;5069899;28;20036;-75
2022/05/28 05:20:37;;;;;;;11.52;1.60;;;12.90;99.90;;;;;;5087011;28;20055;-75
2022/05/28 05:23:03;;;;;;;20.23;2.83;;;14.20;99.90;;;;;;5069506;28;20044;-75
2022/05/28 05:25:29;;;;;;;15.15;1.70;;;14.80;99.90;;;;;;5093454;28;21537;-75
2022/05/28 05:27:55;;;;;;;11.85;2.25;;;14.80;99.90;;;;;;5067818;28;20114;-75
2022/05/28 05:30:20;;;;;;;9.35;2.30;;;14.40;99.90;;;;;;5068003;28;20043;-75
2022/05/28 05:32:46;;;;;;;11.50;2.58;;;14.00;99.90;;;;;;5092601;28;20110;-75
2022/05/28 05:35:12;;;;;;;13.60;1.58;;;13.80;99.90;;;;;;5070266;28;20094;-75
2022/05/28 05:37:37;;;;;;;14.27;2.30;;;13.50;99.90;;;;;;5085980;28;20040;-75
2022/05/28 05:40:04;;;;;;;15.45;2.85;;;13.20;99.90;;;;;;5092870;28;20036;-75
2022/05/28 05:42:30;;;;;;;13.93;2.15;;;13.10;99.90;;;;;;5063195;28;20052;-76
2022/05/28 05:44:56;;;;;;;11.75;1.92;;;12.90;99.90;;;;;;5086889;28;20043;-74
2022/05/28 05:47:21;;;;;;;13.13;2.40;;;12.70;99.90;;;;;;5083752;28;20037;-75
2022/05/28 05:49:47;;;;;;;14.85;1.98;;;12.60;99.90;;;;;;5052676;28;20047;-75
2022/05/28 05:52:13;;;;;;;11.05;2.05;;;12.50;99.90;;;;;;5086435;28;20048;-75
2022/05/28 05:54:39;;;;;;;18.48;2.42;;;12.40;99.90;;;;;;5066899;28;20035;-75
2022/05/28 05:57:05;;;;;;;13.52;2.33;;;12.40;99.90;;;;;;5071216;28;20040;-75
2022/05/28 05:59:31;;;;;;;16.25;3.95;;;12.40;99.90;;;;;;5067499;28;20039;-75
2022/05/28 06:01:57;;;;;;;16.38;2.70;;;12.40;99.90;;;;;;5066600;28;20036;-75
2022/05/28 06:04:22;;;;;;;11.48;3.35;;;12.40;99.90;;;;;;5104575;27;20557;-75
2022/05/28 06:06:48;;;;;;;13.90;2.72;;;12.30;99.90;;;;;;5075058;28;20050;-75
2022/05/28 06:09:14;;;;;;;12.13;1.75;;;12.40;99.90;;;;;;5097571;28;20195;-75
2022/05/28 06:11:40;;;;;;;6.80;1.10;;;12.40;99.90;;;;;;5068911;28;20414;-74
2022/05/28 06:14:05;;;;;;;14.05;2.03;;;12.40;99.90;;;;;;5071846;28;20047;-75
2022/05/28 06:16:31;;;;;;;5.72;1.27;;;12.30;99.90;;;;;;5109204;27;20046;-75
2022/05/28 06:18:57;;;;;;;5.50;1.10;;;12.40;99.90;;;;;;5092838;28;20045;-75
2022/05/28 06:21:25;;;;;;;6.93;1.15;;;12.40;99.90;;;;;;5094204;28;20031;-74
2022/05/28 06:23:51;;;;;;;7.93;1.48;;;12.50;99.90;;;;;;5084909;28;20078;-74
2022/05/28 06:26:17;;;;;;;3.92;0.88;;;12.50;99.90;;;;;;5079964;28;20070;-74
2022/05/28 06:28:42;;;;;;;6.00;0.90;;;12.50;99.90;;;;;;5090374;28;20044;-75
2022/05/28 06:31:11;;;;;;;3.97;0.85;;;12.70;99.90;;;;;;5090847;28;21023;-74
2022/05/28 06:33:38;;;;;;;7.22;1.02;;;12.90;99.90;;;;;;5095092;28;20043;-75
2022/05/28 06:36:05;;;;;;;6.80;1.20;;;13.40;99.90;;;;;;5078005;28;20126;-75
2022/05/28 06:38:32;;;;;;;5.72;1.35;;;13.80;99.90;;;;;;5075295;28;20031;-75
2022/05/28 06:40:59;;;;;;;5.47;1.25;;;14.20;99.90;;;;;;5094320;28;20434;-75
2022/05/28 06:43:26;;;;;;;9.57;1.95;;;14.50;99.90;;;;;;5095139;28;20031;-74
2022/05/28 06:45:52;;;;;;;10.20;1.40;;;14.70;99.90;;;;;;5077999;28;20039;-75
2022/05/28 06:48:17;;;;;;;12.43;1.92;;;14.80;99.90;;;;;;5101587;28;20043;-75
2022/05/28 06:51:01;;;;;;;7.32;1.48;;;14.80;99.90;;;;;;5075649;28;20472;-75
2022/05/28 06:53:29;;;;;;;17.42;2.42;;;14.90;99.90;;;;;;5108426;27;20473;-75
2022/05/28 06:55:54;;;;;;;11.55;2.42;;;15.00;99.90;;;;;;5077272;28;20043;-74
2022/05/28 06:58:20;;;;;;;11.10;2.08;;;15.10;99.90;;;;;;5078602;28;20040;-74
2022/05/28 07:00:45;;;;;;;15.48;2.55;;;15.00;99.90;;;;;;5073647;28;20054;-75
2022/05/28 07:03:18;;;;;;;12.70;2.67;;;14.80;99.90;;;;;;5110734;27;20068;-75
2022/05/28 07:05:44;;;;;;;12.80;2.88;;;14.60;99.90;;;;;;5071636;28;20076;-75
2022/05/28 07:08:10;;;;;;;14.15;2.83;;;14.40;99.90;;;;;;5079372;28;20044;-76
2022/05/28 07:10:38;;;;;;;25.90;4.25;;;14.20;99.90;;;;;;5094504;28;20043;-76
2022/05/28 07:13:05;;;;;;;12.07;2.47;;;14.00;99.90;;;;;;5101973;27;20723;-76
2022/05/28 07:15:31;;;;;;;10.27;2.10;;;13.70;99.90;;;;;;5075195;28;20031;-75
2022/05/28 07:17:59;;;;;;;10.65;1.70;;;13.60;99.90;;;;;;5094223;28;20500;-76
2022/05/28 07:20:24;;;;;;;8.60;2.05;;;13.40;99.90;;;;;;5093124;28;20437;-75
2022/05/28 07:22:50;;;;;;;13.43;1.98;;;13.30;99.90;;;;;;5059623;28;20051;-75
2022/05/28 07:25:16;;;;;;;9.60;1.80;;;13.10;99.90;;;;;;5072378;28;20114;-75
2022/05/28 07:27:41;;;;;;;10.40;2.65;;;13.00;99.90;;;;;;5108817;27;20035;-75
2022/05/28 07:30:08;;;;;;;6.68;1.92;;;12.90;99.90;;;;;;5080545;28;20075;-75
2022/05/28 07:32:34;;;;;;;11.77;2.10;;;12.80;99.90;;;;;;5074975;28;20044;-75
2022/05/28 07:34:59;;;;;;;10.98;2.08;;;12.60;99.90;;;;;;5096030;28;20148;-75
2022/05/28 07:37:27;;;;;;;11.10;1.98;;;12.50;99.90;;;;;;5077827;28;20041;-74
2022/05/28 07:39:53;;;;;;;10.73;2.00;;;12.40;99.90;;;;;;5053967;28;20150;-75
2022/05/28 07:42:18;;;;;;;11.73;1.63;;;12.30;99.90;;;;;;5067742;28;21097;-74
2022/05/28 07:44:44;;;;;;;9.57;1.27;;;12.30;99.90;;;;;;5075408;28;20031;-75
2022/05/28 07:47:10;;;;;;;10.07;1.58;;;12.40;99.90;;;;;;5094605;28;20068;-75
2022/05/28 07:49:37;;;;;;;9.27;1.67;;;12.60;99.90;;;;;;5076138;28;20048;-75
2022/05/28 07:52:03;;;;;;;6.25;1.50;;;12.90;99.90;;;;;;5084488;28;20526;-74
2022/05/28 07:54:29;;;;;;;10.32;1.98;;;13.40;99.90;;;;;;5075976;28;20036;-74
2022/05/28 07:56:54;;;;;;;13.18;2.10;;;13.90;99.90;;;;;;5091866;28;20541;-74
2022/05/28 07:59:20;;;;;;;8.40;2.10;;;14.30;99.90;;;;;;5073235;28;20039;-74
2022/05/28 08:01:45;;;;;;;8.00;2.00;;;14.80;99.90;;;;;;5074556;28;20070;-74
2022/05/28 08:04:11;;;;;;;11.65;2.28;;;15.20;99.90;;;;;;5069437;28;20032;-74
2022/05/28 08:06:38;;;;;;;10.32;2.17;;;15.50;99.90;;;;;;5068198;28;20044;-74
2022/05/28 08:09:05;;;;;;;14.85;1.92;;;15.60;99.90;;;;;;5076509;28;20130;-74
2022/05/28 08:11:31;;;;;;;12.02;2.40;;;15.70;99.90;;;;;;5063882;28;20574;-74
2022/05/28 08:13:57;;;;;;;9.40;2.33;;;15.70;99.90;;;;;;5097816;28;20114;-74
2022/05/28 08:16:23;;;;;;;14.15;2.20;;;15.70;99.90;;;;;;5078835;28;20040;-74
2022/05/28 08:18:49;;;;;;;11.05;2.20;;;15.50;99.90;;;;;;5060836;28;20040;-75
2022/05/28 08:24:00;;;;;;;16.95;2.55;;;15.10;99.90;;;;;;5078962;28;20490;-75
2022/05/28 08:26:26;;;;;;;13.55;3.40;;;14.90;99.90;;;;;;5093542;28;20039;-74
2022/05/28 08:28:53;;;;;;;12.65;2.30;;;14.80;99.90;;;;;;5102280;28;20593;-74
2022/05/28 08:31:19;;;;;;;10.48;2.50;;;14.80;99.90;;;;;;5080526;28;20486;-74
2022/05/28 08:33:46;;;;;;;17.08;3.10;;;14.80;99.90;;;;;;5075888;28;20117;-74
2022/05/28 08:36:12;;;;;;;11.15;2.30;;;15.00;99.90;;;;;;5088226;28;20032;-74
2022/05/28 08:38:39;;;;;;;14.02;2.88;;;15.00;99.90;;;;;;5066371;28;20041;-74
2022/05/28 08:41:31;;;;;;;15.02;2.65;;;15.20;99.90;;;;;;5059421;28;20093;-74
2022/05/28 08:44:13;;;;;;;17.38;2.80;;;15.40;99.90;;;;;;5108525;28;20044;-74
2022/05/28 08:46:38;;;;;;;12.30;2.67;;;15.30;99.90;;;;;;5073904;28;20036;-74
2022/05/28 08:49:06;;;;;;;15.75;2.92;;;15.40;99.90;;;;;;5059347;28;20065;-74
2022/05/28 08:51:42;;;;;;;14.90;2.72;;;15.70;99.90;;;;;;5075008;28;20467;-74
2022/05/28 08:54:10;;;;;;;15.95;3.08;;;15.90;99.90;;;;;;5092304;28;20036;-74
2022/05/28 08:56:37;;;;;;;10.45;2.22;;;15.90;99.90;;;;;;5095294;28;20042;-74
2022/05/28 08:59:18;;;;;;;12.43;2.30;;;15.90;99.90;;;;;;5094302;28;20040;-74
2022/05/28 09:01:45;;;;;;;16.35;2.72;;;16.10;99.90;;;;;;5093305;28;20051;-74
2022/05/28 09:04:15;;;;;;;13.05;2.13;;;16.30;99.90;;;;;;5079158;28;20040;-73
2022/05/28 09:06:44;;;;;;;11.98;2.92;;;16.50;99.90;;;;;;5093234;28;20040;-75
2022/05/28 09:09:14;;;;;;;13.80;2.50;;;16.50;99.90;;;;;;5073522;28;20052;-74
2022/05/28 09:11:45;;;;;;;13.30;2.70;;;16.40;99.90;;;;;;5083830;28;20055;-74
2022/05/28 09:14:24;;;;;;;14.15;2.35;;;16.30;99.90;;;;;;5048031;28;20119;-74
2022/05/28 09:16:56;;;;;;;13.23;2.53;;;16.00;99.90;;;;;;5087026;28;20045;-74
2022/05/28 09:19:26;;;;;;;12.35;1.90;;;15.80;99.90;;;;;;5075052;28;20087;-74
2022/05/28 09:21:52;;;;;;;13.60;3.00;;;16.00;99.90;;;;;;5081223;28;20405;-74
2022/05/28 09:24:22;;;;;;;16.58;2.17;;;16.20;99.90;;;;;;5094845;28;20036;-74
2022/05/28 09:27:17;;;;;;;17.58;2.67;;;16.50;99.90;;;;;;5108433;27;20038;-74
2022/05/28 09:30:30;;;;;;;19.88;4.43;;;16.70;99.90;;;;;;5077286;28;20048;-74
2022/05/28 09:33:20;;;;;;;13.05;2.50;;;16.60;99.90;;;;;;5036160;28;20033;-74
2022/05/28 09:36:04;;;;;;;10.43;1.60;;;16.50;99.90;;;;;;5032890;28;20064;-74
2022/05/28 09:38:35;;;;;;;7.88;1.73;;;16.80;99.90;;;;;;5083011;28;20048;-74
2022/05/28 09:41:12;;;;;;;10.00;2.08;;;17.00;99.90;;;;;;5074674;28;20055;-74
2022/05/28 09:44:16;;;;;;;9.85;1.98;;;16.90;99.90;;;;;;5093388;28;20035;-74
2022/05/28 09:46:44;;;;;;;14.38;1.98;;;16.80;99.90;;;;;;5104210;28;20082;-74
2022/05/28 09:49:14;;;;;;;13.48;2.40;;;16.80;99.90;;;;;;5096295;28;20083;-74
2022/05/28 09:52:16;;;;;;;9.27;2.08;;;16.70;99.90;;;;;;5112630;27;20494;-74
2022/05/28 09:54:41;;;;;;;9.38;1.98;;;16.50;99.90;;;;;;5074553;28;20131;-73
2022/05/28 09:57:20;;;;;;;11.63;2.45;;;16.40;99.90;;;;;;5116116;27;20127;-74
2022/05/28 09:59:56;;;;;;;11.68;1.73;;;16.20;99.90;;;;;;5097394;28;20058;-74
2022/05/28 10:02:40;;;;;;;13.07;2.30;;;15.80;99.90;;;;;;5077360;28;20032;-74
2022/05/28 10:05:17;;;;;;;7.72;1.88;;;15.50;99.90;;;;;;5097320;28;20043;-74
2022/05/28 10:07:46;;;;;;;20.23;3.95;;;15.30;99.90;;;;;;5095423;28;20471;-74
2022/05/28 10:10:27;;;;;;;11.48;1.83;;;15.20;99.90;;;;;;5075507;28;20051;-73
2022/05/28 10:13:04;;;;;;;11.98;2.05;;;15.40;99.90;;;;;;5079898;28;20051;-74
2022/05/28 10:15:33;;;;;;;11.73;2.10;;;15.70;99.90;;;;;;5096804;28;20039;-73
2022/05/28 10:18:02;;;;;;;14.82;2.53;;;16.00;99.90;;;;;;5111679;27;20054;-74
2022/05/28 10:20:29;;;;;;;16.83;2.72;;;16.50;99.90;;;;;;5076943;28;20405;-74
2022/05/28 10:22:57;;;;;;;13.48;2.20;;;16.70;99.90;;;;;;5081692;28;20044;-73
2022/05/28 10:25:36;;;;;;;17.38;2.13;;;16.90;99.90;;;;;;5108641;27;20118;-73
2022/05/28 10:28:03;;;;;;;10.80;2.13;;;16.90;99.90;;;;;;5097391;28;20448;-74
2022/05/28 10:30:37;;;;;;;9.88;2.40;;;16.80;99.90;;;;;;5098945;28;20028;-74
2022/05/28 10:33:18;;;;;;;17.88;2.70;;;16.60;99.90;;;;;;5072326;28;20070;-74
2022/05/28 10:35:45;;;;;;;16.60;2.63;;;16.30;99.90;;;;;;5103888;27;20028;-74
2022/05/28 10:38:11;;;;;;;17.55;2.90;;;16.00;99.90;;;;;;5076174;28;20047;-74
2022/05/28 10:40:51;;;;;;;12.13;2.05;;;15.80;99.90;;;;;;5100643;28;20032;-74
2022/05/28 10:43:28;;;;;;;12.85;2.22;;;15.70;99.90;;;;;;5095233;28;20160;-74
2022/05/28 10:46:14;;;;;;;12.80;2.40;;;15.50;99.90;;;;;;5093405;28;20054;-74
2022/05/28 10:49:21;;;;;;;17.80;3.05;;;15.40;99.90;;;;;;5071887;28;20087;-74
2022/05/28 10:52:17;;;;;;;9.95;2.00;;;15.30;99.90;;;;;;5112011;27;20044;-74
2022/05/28 10:54:59;;;;;;;11.10;1.92;;;15.20;99.90;;;;;;5091587;28;20040;-74
2022/05/28 10:57:36;;;;;;;13.80;2.03;;;15.00;99.90;;;;;;5110113;27;20040;-74
2022/05/28 11:00:08;;;;;;;11.10;2.28;;;15.10;99.90;;;;;;5083299;28;20164;-74
2022/05/28 11:02:52;;;;;;;11.05;2.10;;;15.30;99.90;;;;;;5064620;28;20071;-73
2022/05/28 11:05:43;;;;;;;14.88;2.38;;;15.50;99.90;;;;;;5075145;28;20092;-74
2022/05/28 11:08:31;;;;;;;15.35;1.95;;;15.60;99.90;;;;;;5090592;28;20044;-74
2022/05/28 11:11:02;;;;;;;12.32;2.58;;;15.50;99.90;;;;;;5093424;28;20046;-73
2022/05/28 11:13:53;;;;;;;14.68;3.10;;;15.50;99.90;;;;;;5086862;28;20043;-74
2022/05/28 11:16:28;;;;;;;15.90;3.08;;;15.50;99.90;;;;;;5070630;28;20036;-74
2022/05/28 11:18:59;;;;;;;9.82;2.65;;;15.40;99.90;;;;;;5075519;28;20079;-74
2022/05/28 11:21:34;;;;;;;9.23;1.85;;;15.40;99.90;;;;;;5075736;28;20170;-74
2022/05/28 11:24:05;;;;;;;13.32;2.00;;;15.40;99.90;;;;;;5077212;28;20051;-74
2022/05/28 11:26:53;;;;;;;13.30;2.33;;;15.40;99.90;;;;;;5072337;28;20757;-74
2022/05/28 11:29:46;;;;;;;11.45;2.45;;;15.50;99.90;;;;;;5069480;28;21029;-74
2022/05/28 11:32:23;;;;;;;12.77;1.98;;;15.80;99.90;;;;;;5109084;27;20048;-73
2022/05/28 11:35:16;;;;;;;11.65;1.67;;;15.90;99.90;;;;;;5113640;27;20048;-73
2022/05/28 11:38:14;;;;;;;11.25;1.73;;;16.30;99.90;;;;;;5079655;28;20058;-73
2022/05/28 11:40:55;;;;;;;11.40;2.03;;;16.70;99.90;;;;;;5102809;27;20151;-74
2022/05/28 11:43:28;;;;;;;14.43;2.15;;;17.10;99.90;;;;;;5072817;28;20036;-74
2022/05/28 11:46:19;;;;;;;15.05;2.42;;;17.20;99.90;;;;;;5076488;28;20131;-74
2022/05/28 11:51:42;;;;;;;13.57;1.83;;;17.20;99.90;;;;;;5075555;28;20047;-74
2022/05/28 11:54:14;;;;;;;9.82;1.80;;;16.90;99.90;;;;;;5093396;28;20043;-74
2022/05/28 11:56:41;;;;;;;9.95;1.52;;;16.80;99.90;;;;;;5093298;28;20044;-74
2022/05/28 11:59:18;;;;;;;13.15;2.42;;;16.60;99.90;;;;;;5094522;28;20055;-74
2022/05/28 12:02:05;;;;;;;10.63;2.22;;;16.40;99.90;;;;;;5093862;28;20043;-74
2022/05/28 12:04:31;;;;;;;9.38;1.60;;;16.20;99.90;;;;;;5093229;28;20539;-74
2022/05/28 12:07:20;;;;;;;13.05;2.13;;;16.10;99.90;;;;;;5072283;28;20080;-74
2022/05/28 12:09:46;;;;;;;14.40;2.45;;;16.10;99.90;;;;;;5066253;28;20093;-74
2022/05/28 12:12:23;;;;;;;12.18;1.88;;;16.10;99.90;;;;;;5075235;28;20035;-74
2022/05/28 12:15:14;;;;;;;16.77;2.53;;;16.00;99.90;;;;;;5109490;27;20040;-74
2022/05/28 12:17:41;;;;;;;9.95;1.75;;;16.10;99.90;;;;;;5065969;28;20056;-74
2022/05/28 12:20:11;;;;;;;10.65;1.70;;;16.10;99.90;;;;;;5096960;28;20059;-74
2022/05/28 12:23:00;;;;;;;8.85;2.00;;;16.10;99.90;;;;;;5074549;28;20089;-75
2022/05/28 12:25:28;;;;;;;13.63;2.03;;;16.40;99.90;;;;;;5075747;28;20048;-74
2022/05/28 12:27:54;;;;;;;4.07;1.00;;;16.40;99.90;;;;;;5112495;28;20075;-74
2022/05/28 12:30:46;;;;;;;6.97;0.90;;;16.50;99.90;;;;;;5071886;28;20106;-74
2022/05/28 12:33:33;;;;;;;9.52;1.75;;;16.70;99.90;;;;;;5073969;28;20696;-74
2022/05/28 12:36:12;;;;;;;8.00;1.70;;;16.80;99.90;;;;;;5066242;28;20048;-74
2022/05/28 12:38:45;;;;;;;6.18;1.35;;;16.70;99.90;;;;;;5092855;28;20105;-74
2022/05/28 12:41:24;;;;;;;6.93;1.27;;;16.80;99.90;;;;;;5074750;28;20060;-74
2022/05/28 12:43:57;;;;;;;8.45;1.60;;;16.90;99.90;;;;;;5092043;28;20390;-74
2022/05/28 12:46:42;;;;;;;8.80;1.60;;;16.90;99.90;;;;;;5077854;28;20040;-74
2022/05/28 12:49:28;;;;;;;9.38;1.23;;;16.60;99.90;;;;;;5074500;28;20554;-74
2022/05/28 12:52:21;;;;;;;7.50;1.35;;;16.40;99.90;;;;;;5032846;28;20059;-74
2022/05/28 12:54:57;;;;;;;11.90;2.10;;;16.30;99.90;;;;;;5072361;28;20585;-74
2022/05/28 12:57:26;;;;;;;5.93;1.08;;;16.50;99.90;;;;;;5079180;28;20067;-73
2022/05/28 13:00:12;;;;;;;11.52;1.75;;;16.90;99.90;;;;;;5097860;28;20054;-74
2022/05/28 13:02:58;;;;;;;8.40;2.05;;;16.50;99.90;;;;;;5077600;28;20555;-74
2022/05/28 13:05:33;;;;;;;10.00;1.85;;;16.20;99.90;;;;;;5111701;27;20523;-74